Thursday, May 24, 2018, 10:04 AM GMT
Back to Local

CYSC, Sherbrooke, Que.

Location: , , Canada Lat: 45.4
Local Time: 10:04 AM GMT (10:04 GMT) Lon: -71.883
Time Zone: GMT Elev: 557 ft

Show me the last for .
Show Coded

Time T Td Feel RH Dir Speed Gust Alt SLP Vis Weather Sky Remarks
2018-05-24 09:00 41 37 39 86 270° 3 - 30.04 30.06 9 CLR None
2018-05-24 08:00 41 39 39 93 230° 3 - 30.02 30.04 9 SCT090 SCT240 None
2018-05-24 07:00 43 41 - 93 Variable 2 - 30.01 30.03 9 SCT095 SCT250 None
2018-05-24 06:00 45 41 - 87 240° 2 - 30.00 30.01 9 OVC100 None
2018-05-24 05:00 46 41 - 81 - Calm - 29.99 30.01 9 OVC110 None
2018-05-24 04:00 46 41 - 81 - Calm - 29.98 30.00 9 BKN130 None
2018-05-24 03:00 50 43 - 76 20° 2 - 29.98 30.00 9 OVC110 None
2018-05-24 02:00 48 41 - 76 80° 2 - 29.98 29.99 9 SCT120 SCT250 None
2018-05-24 01:00 54 39 - 58 70° 5 - 29.97 29.98 9 CLR None
2018-05-24 00:00 59 39 - 47 50° 7 - 29.95 29.96 9 FEW250 None
2018-05-23 23:00 63 34 - 33 10° 6 - 29.93 29.94 9 SCT240 None
2018-05-23 22:00 64 37 - 36 330° 6 - 29.91 29.92 9 FEW070 SCT250 None
2018-05-23 21:00 64 41 - 42 320° 12 17 29.91 29.92 9 BKN060 BKN077 BKN250 None
2018-05-23 20:00 64 45 - 48 320° 9 18 29.90 29.91 9 SCT047 BKN070 BKN240 None
2018-05-23 19:00 63 50 - 63 330° 9 - 29.90 29.91 9 FEW031 SCT250 None
2018-05-23 18:00 61 52 - 72 270° 9 - 29.90 29.91 9 SCT018 SCT043 BKN050 BKN060 None
2018-05-23 17:47 61 54 - 77 300° 12 18 29.90 29.91 9 SCT018 BKN043 BKN055 BKN250 None
2018-05-23 17:37 61 54 - 77 290° 10 - 29.90 29.91 9 SCT018 BKN023 BKN038 None
2018-05-23 17:32 61 54 - 77 300° 8 18 29.90 29.91 9 SCT018 SCT023 BKN038 None
2018-05-23 17:17 59 54 - 82 300° 9 - 29.90 29.91 9 BKN020 BKN030 OVC038 None
2018-05-23 17:12 59 54 - 82 300° 7 - 29.90 29.91 9 SCT018 BKN025 OVC038 None
2018-05-23 17:00 59 54 - 82 290° 10 - 29.90 29.91 9 BKN019 BKN027 OVC032 None
2018-05-23 16:00 57 54 - 87 290° 10 - 29.89 29.90 9 SCT016 OVC022 None
2018-05-23 15:00 57 54 - 87 270° 13 18 29.88 29.89 9 OVC018 None
2018-05-23 14:00 59 54 - 82 270° 14 - 29.88 29.90 9 SCT015 OVC024 None
2018-05-23 13:29 57 54 - 87 250° 9 - 29.88 29.89 9 BKN011 OVC015 None
2018-05-23 13:00 57 54 - 87 280° 6 - 29.88 29.89 9 BKN011 OVC017 None
2018-05-23 12:59 57 54 - 87 280° 6 - 29.88 29.89 9 BKN009 OVC015 None
2018-05-23 12:00 57 55 - 93 200° 7 - 29.87 29.88 9 FEW005 OVC014 None
2018-05-23 11:42 55 55 - 100 230° 7 - 29.88 29.89 9 SCT003 OVC016 None
2018-05-23 11:21 55 54 - 93 230° 6 - 29.88 29.89 6 BR OVC003 None
2018-05-23 11:00 54 54 - 100 240° 5 - 29.87 29.88 5 BR BKN003 OVC015 None
2018-05-23 10:49 54 54 - 100 220° 6 - 29.87 29.88 5 BR BKN003 OVC017 None
2018-05-23 10:43 54 54 - 100 250° 5 - 29.87 29.88 5 BR SCT003 OVC017 None

Support USWX by starting your Amazon purchase here.